Time;durP1;ratioP1;P1;durP2;ratioP2;P2;SDS_P1;SDS_P2;PMS_P1;PMS_P2;Temp;Humidity;BMP_temperature;BMP_pressure;BME280_temperature;BME280_humidity;BME280_pressure;Samples;Min_cycle;Max_cycle;Signal;HPM_P1;HPM_P2
2022/05/25 00:01:21;;;;;;;21.97;16.95;;;;;;;17.54;79.32;98142.32;1384035;103;26020;-62
2022/05/25 00:03:47;;;;;;;20.92;16.73;;;;;;;17.54;79.19;98144.52;1384208;103;25880;-61
2022/05/25 00:06:16;;;;;;;22.58;16.52;;;;;;;17.50;79.33;98144.25;1384148;103;25598;-61
2022/05/25 00:08:46;;;;;;;20.40;16.63;;;;;;;17.52;79.59;98147.42;1397792;102;27573;-61
2022/05/25 00:11:12;;;;;;;22.42;17.45;;;;;;;17.56;79.45;98146.91;1357512;105;25890;-61
2022/05/25 00:13:40;;;;;;;19.87;17.15;;;;;;;17.56;79.19;98141.37;1359189;105;25628;-62
2022/05/25 00:16:07;;;;;;;21.37;16.62;;;;;;;17.50;79.36;98132.56;1340593;107;26696;-61
2022/05/25 00:18:33;;;;;;;20.40;15.53;;;;;;;17.46;78.98;98133.68;1358681;105;25843;-58
2022/05/25 00:21:10;;;;;;;;;;;;;;;;;;;;;
2022/05/25 00:23:39;;;;;;;;;;;;;;;;;;;;;
2022/05/25 00:28:25;;;;;;;19.52;15.15;;;;;;;17.49;79.05;98136.52;1315805;109;25964;-61
2022/05/25 00:30:51;;;;;;;19.82;15.78;;;;;;;17.52;79.20;98129.42;1308186;109;25926;-61
2022/05/25 00:33:20;;;;;;;18.60;15.15;;;;;;;17.53;78.76;98131.81;1291198;111;27541;-60
2022/05/25 00:35:46;;;;;;;18.35;15.85;;;;;;;17.55;78.84;98139.75;1296231;108;25870;-61
2022/05/25 00:38:14;;;;;;;22.50;16.23;;;;;;;17.53;78.71;98144.89;1316226;109;26055;-62
2022/05/25 00:40:45;;;;;;;39.90;25.48;;;;;;;17.49;78.57;98153.13;1331128;107;25895;-62
2022/05/25 00:43:13;;;;;;;37.48;23.85;;;;;;;17.39;78.40;98145.47;1317343;108;25995;-62
2022/05/25 00:45:50;;;;;;;29.80;18.65;;;;;;;17.35;78.41;98142.63;1317262;108;27517;-61
2022/05/25 00:48:24;;;;;;;24.70;16.93;;;;;;;17.30;78.41;98145.13;1346091;104;25881;-58
2022/05/25 00:53:38;;;;;;;18.45;14.05;;;;;;;17.23;78.26;98153.91;1303199;109;25598;-58
2022/05/25 00:56:07;;;;;;;18.10;14.95;;;;;;;17.21;78.51;98146.58;1360479;104;26053;-60
2022/05/25 00:58:36;;;;;;;18.95;14.75;;;;;;;17.25;78.36;98152.96;1354675;105;27641;-58
2022/05/25 01:09:37;;;;;;;17.40;14.70;;;;;;;17.26;77.64;98165.63;1328579;108;25988;-61
2022/05/25 01:12:48;;;;;;;;;;;;;;;;;;;;;
2022/05/25 01:15:18;;;;;;;19.92;14.30;;;;;;;17.12;78.07;98171.16;1280046;112;25883;-61
2022/05/25 01:18:09;;;;;;;21.87;16.50;;;;;;;17.10;78.28;98167.94;1280210;112;25655;-58
2022/05/25 01:20:58;;;;;;;18.62;15.50;;;;;;;17.06;78.05;98176.17;1291179;109;25898;-58
2022/05/25 01:23:59;;;;;;;18.70;14.68;;;;;;;17.00;78.16;98169.92;1304235;110;25864;-57
2022/05/25 01:27:15;;;;;;;;;;;;;;;;;;;;;
2022/05/25 01:30:11;;;;;;;22.73;16.10;;;;;;;17.00;78.31;98175.45;1286418;110;26156;-58
2022/05/25 01:32:53;;;;;;;;;;;;;;;;;;;;;
2022/05/25 01:36:00;;;;;;;;;;;;;;;;;;;;;
2022/05/25 01:38:43;;;;;;;21.27;14.58;;;;;;;17.04;78.03;98181.27;1245870;114;25832;-57
2022/05/25 01:41:24;;;;;;;17.65;14.10;;;;;;;17.05;78.00;98175.16;1274979;112;27521;-59
2022/05/25 01:44:08;;;;;;;;;;;;;;;;;;;;;
2022/05/25 01:46:47;;;;;;;19.10;14.03;;;;;;;17.10;78.03;98176.25;1299396;109;25647;-59
2022/05/25 01:49:19;;;;;;;18.10;15.28;;;;;;;17.11;77.80;98178.44;1298717;108;25881;-58
2022/05/25 01:51:57;;;;;;;20.27;16.27;;;;;;;17.08;77.90;98183.33;1274513;111;25864;-61
2022/05/25 01:54:29;;;;;;;20.50;15.28;;;;;;;17.04;77.93;98179.11;1274412;112;27591;-61
2022/05/25 01:59:27;;;;;;;19.60;15.45;;;;;;;16.92;77.97;98172.57;1247705;110;26004;-58
2022/05/25 02:04:46;;;;;;;18.52;14.90;;;;;;;16.92;77.94;98173.95;1374705;104;25657;-58
2022/05/25 02:07:21;;;;;;;15.63;12.73;;;;;;;16.93;77.91;98172.00;1374773;104;28362;-58
2022/05/25 02:10:26;;;;;;;14.70;12.95;;;;;;;16.93;77.99;98172.00;1374516;104;25757;-58
2022/05/25 02:13:32;;;;;;;16.25;12.90;;;;;;;16.93;78.05;98171.39;1330114;105;25960;-61
2022/05/25 02:16:36;;;;;;;16.37;12.65;;;;;;;16.93;78.07;98168.62;1319770;108;25844;-61
2022/05/25 02:19:33;;;;;;;17.17;13.20;;;;;;;16.98;78.03;98166.74;1304768;110;25927;-58
2022/05/25 02:22:23;;;;;;;17.75;13.78;;;;;;;17.02;78.23;98168.98;1367486;102;27530;-58
2022/05/25 02:25:20;;;;;;;;;;;;;;;;;;;;;
2022/05/25 02:27:44;;;;;;;17.10;12.95;;;;;;;16.99;78.27;98173.30;1349654;106;25697;-58
2022/05/25 02:30:30;;;;;;;;;;;;;;;;;;;;;
2022/05/25 02:33:02;;;;;;;15.78;13.13;;;;;;;16.91;78.38;98175.70;1368417;104;25828;-57
2022/05/25 02:35:33;;;;;;;18.12;14.07;;;;;;;16.84;78.58;98176.38;1368800;104;27636;-58
2022/05/25 02:38:04;;;;;;;19.30;14.18;;;;;;;16.75;78.81;98185.52;1328980;107;25853;-57
2022/05/25 02:40:34;;;;;;;20.17;14.40;;;;;;;16.72;79.32;98184.27;1389732;103;26013;-58
2022/05/25 02:43:06;;;;;;;19.02;14.83;;;;;;;16.70;79.46;98186.62;1369014;104;25856;-57
2022/05/25 02:45:46;;;;;;;;;;;;;;;;;;;;;
2022/05/25 02:48:06;;;;;;;19.67;15.35;;;;;;;16.65;79.84;98191.05;1309000;109;26786;-61
2022/05/25 02:50:32;;;;;;;18.07;16.17;;;;;;;16.62;80.15;98192.59;1306837;108;25916;-60
2022/05/25 02:52:58;;;;;;;19.23;16.00;;;;;;;16.69;80.16;98182.23;1296997;110;25855;-61
2022/05/25 02:55:39;;;;;;;;;;;;;;;;;;;;;
2022/05/25 02:57:59;;;;;;;18.85;15.80;;;;;;;16.87;79.81;98183.16;1319118;108;25970;-61
2022/05/25 03:00:24;;;;;;;21.27;16.50;;;;;;;16.93;79.82;98183.84;1301878;110;27937;-61
2022/05/25 03:02:50;;;;;;;31.23;21.80;;;;;;;16.96;79.88;98192.59;1301889;110;25932;-61
2022/05/25 03:07:47;;;;;;;36.93;24.60;;;;;;;16.93;79.86;98185.84;1254849;114;25908;-61
2022/05/25 03:10:15;;;;;;;23.95;16.45;;;;;;;16.93;79.82;98183.07;1237794;114;26048;-62
2022/05/25 03:12:42;;;;;;;26.12;18.55;;;;;;;16.93;79.74;98192.75;1226876;116;27725;-57
2022/05/25 03:15:20;;;;;;;;;;;;;;;;;;;;;
2022/05/25 03:17:40;;;;;;;20.82;14.98;;;;;;;16.89;79.86;98194.64;1284448;111;26049;-60
2022/05/25 03:20:11;;;;;;;18.55;15.03;;;;;;;16.83;79.75;98196.11;1246108;111;25966;-61
2022/05/25 03:22:49;;;;;;;;;;;;;;;;;;;;;
2022/05/25 03:25:08;;;;;;;17.10;14.58;;;;;;;16.70;80.03;98198.26;1252332;113;25985;-61
2022/05/25 03:27:36;;;;;;;18.17;15.23;;;;;;;16.60;80.21;98192.15;1268052;113;25972;-60
2022/05/25 03:30:06;;;;;;;17.70;15.80;;;;;;;16.60;80.40;98194.11;1308485;109;25622;-60
2022/05/25 03:32:32;;;;;;;19.73;16.15;;;;;;;16.63;80.42;98190.61;1294358;109;26252;-57
2022/05/25 03:35:00;;;;;;;19.57;16.42;;;;;;;16.67;80.26;98185.97;1292711;111;25617;-58
2022/05/25 03:37:29;;;;;;;19.00;15.10;;;;;;;16.74;80.60;98186.09;1315877;109;28568;-58
2022/05/25 03:39:55;;;;;;;19.23;14.83;;;;;;;16.86;80.53;98184.30;1318715;108;27328;-57
2022/05/25 03:42:34;;;;;;;;;;;;;;;;;;;;;
2022/05/25 03:44:51;;;;;;;18.30;14.90;;;;;;;16.75;80.57;98178.00;1255318;113;26020;-57
2022/05/25 03:47:18;;;;;;;18.20;15.35;;;;;;;16.60;81.12;98168.64;1250408;114;25819;-57
2022/05/25 03:49:57;;;;;;;;;;;;;;;;;;;;;
2022/05/25 03:52:13;;;;;;;21.43;17.10;;;;;;;16.47;82.00;98182.42;1254777;114;25987;-58
2022/05/25 03:54:43;;;;;;;23.02;17.37;;;;;;;16.53;82.16;98189.25;1245624;114;25790;-59
2022/05/25 03:57:09;;;;;;;21.15;16.23;;;;;;;16.59;81.93;98197.48;1256471;113;26198;-58
2022/05/25 03:59:35;;;;;;;19.17;16.62;;;;;;;16.61;81.53;98199.27;1264988;112;25853;-58
2022/05/25 04:02:03;;;;;;;20.70;15.95;;;;;;;16.64;81.51;98192.23;1280432;111;26068;-58
2022/05/25 04:04:31;;;;;;;38.50;24.35;;;;;;;16.72;81.62;98195.94;1272623;112;25817;-58
2022/05/25 04:06:57;;;;;;;30.92;21.45;;;;;;;16.76;81.41;98196.22;1295320;110;25827;-60
2022/05/25 04:09:23;;;;;;;26.48;20.57;;;;;;;16.79;81.39;98194.10;1313460;109;25617;-57
2022/05/25 04:11:51;;;;;;;20.65;16.57;;;;;;;16.85;81.32;98195.16;1348404;106;25710;-58
2022/05/25 04:14:17;;;;;;;22.93;17.30;;;;;;;16.90;81.11;98190.12;1339476;106;28366;-58
2022/05/25 04:16:45;;;;;;;20.62;16.57;;;;;;;16.88;81.07;98188.89;1311356;107;26044;-60
2022/05/25 04:19:12;;;;;;;19.23;16.15;;;;;;;16.85;81.47;98184.09;1320236;108;25680;-58
2022/05/25 04:24:07;;;;;;;17.70;15.45;;;;;;;16.79;81.81;98172.54;1402031;101;25858;-57
2022/05/25 04:26:39;;;;;;;22.07;18.00;;;;;;;16.73;82.04;98170.67;1400595;101;27456;-57
2022/05/25 04:29:06;;;;;;;24.20;19.23;;;;;;;16.68;82.38;98169.00;1344678;103;25796;-57
2022/05/25 04:31:33;;;;;;;21.77;18.87;;;;;;;16.61;82.88;98167.47;1385650;103;25743;-57
2022/05/25 04:33:58;;;;;;;23.05;19.85;;;;;;;16.63;82.81;98170.67;1385732;103;25702;-57
2022/05/25 04:36:25;;;;;;;23.35;19.02;;;;;;;16.71;83.20;98168.03;1386598;103;25897;-57
2022/05/25 04:39:01;;;;;;;;;;;;;;;;;;;;;
2022/05/25 04:41:21;;;;;;;22.55;17.57;;;;;;;16.92;82.62;98161.50;1339285;107;25879;-58
2022/05/25 04:43:47;;;;;;;22.35;17.05;;;;;;;16.87;82.42;98161.80;1392234;103;25836;-59
2022/05/25 04:46:13;;;;;;;19.52;16.07;;;;;;;16.87;82.63;98165.17;1392425;103;25821;-57
2022/05/25 04:48:49;;;;;;;;;;;;;;;;;;;;;
2022/05/25 04:51:07;;;;;;;19.92;15.68;;;;;;;16.97;82.39;98160.39;1374519;104;26182;-57
2022/05/25 04:53:40;;;;;;;18.32;15.10;;;;;;;16.98;82.20;98157.84;1375967;104;25879;-57
2022/05/25 04:58:52;;;;;;;22.25;17.42;;;;;;;16.88;82.14;98167.56;1283936;111;25893;-57
2022/05/25 05:01:19;;;;;;;15.68;13.50;;;;;;;16.95;82.45;98166.09;1279975;109;25826;-57
2022/05/25 05:03:46;;;;;;;17.25;14.35;;;;;;;17.00;81.93;98167.16;1308127;109;27670;-57
2022/05/25 05:06:14;;;;;;;20.30;15.95;;;;;;;17.00;81.74;98174.07;1331793;104;25702;-57
2022/05/25 05:08:40;;;;;;;24.05;18.37;;;;;;;16.97;81.69;98170.66;1377213;104;25901;-57
2022/05/25 05:11:11;;;;;;;20.45;15.35;;;;;;;16.88;81.88;98183.36;1377142;104;26215;-57
2022/05/25 05:13:39;;;;;;;14.00;11.55;;;;;;;16.77;82.28;98185.93;1377340;104;25915;-57
2022/05/25 05:16:20;;;;;;;;;;;;;;;;;;;;;
2022/05/25 05:18:39;;;;;;;17.10;12.75;;;;;;;16.59;82.46;98184.22;1350106;101;25964;-57
2022/05/25 05:21:09;;;;;;;19.95;14.80;;;;;;;16.56;82.75;98181.61;1394808;101;25952;-57
2022/05/25 05:23:40;;;;;;;20.27;13.90;;;;;;;16.51;82.75;98181.32;1394090;102;25784;-58
2022/05/25 05:26:07;;;;;;;17.52;11.78;;;;;;;16.49;83.12;98180.09;1394941;101;25916;-58
2022/05/25 05:28:38;;;;;;;14.58;11.33;;;;;;;16.50;83.72;98184.45;1419061;99;29628;-60
2022/05/25 05:31:19;;;;;;;;;;;;;;;;;;;;;
2022/05/25 05:33:37;;;;;;;12.47;9.88;;;;;;;16.46;83.73;98195.44;1416912;98;25991;-58
2022/05/25 05:36:15;;;;;;;16.12;11.15;;;;;;;16.42;84.18;98196.77;1406278;102;25857;-60
2022/05/25 05:38:55;;;;;;;11.93;10.68;;;;;;;16.29;84.29;98198.86;1406446;102;25839;-59
2022/05/25 05:41:26;;;;;;;14.93;11.55;;;;;;;16.21;84.48;98201.28;1376486;104;27569;-60
2022/05/25 05:44:02;;;;;;;;;;;;;;;;;;;;;
2022/05/25 05:46:22;;;;;;;12.35;9.75;;;;;;;16.15;84.81;98199.36;1341555;106;25689;-59
2022/05/25 05:48:50;;;;;;;12.50;9.95;;;;;;;16.05;85.08;98195.23;1324212;108;25616;-59
2022/05/25 05:53:47;;;;;;;13.45;10.93;;;;;;;16.06;85.18;98198.77;1336398;107;26068;-59
2022/05/25 05:56:14;;;;;;;14.93;10.90;;;;;;;16.10;85.38;98197.48;1320580;107;25983;-59
2022/05/25 05:58:40;;;;;;;16.27;11.43;;;;;;;16.08;85.70;98200.59;1311764;109;25866;-60
2022/05/25 06:01:06;;;;;;;14.68;11.18;;;;;;;16.09;85.61;98206.94;1312959;109;26311;-59
2022/05/25 06:03:33;;;;;;;13.08;11.33;;;;;;;16.05;85.49;98207.66;1313837;108;25794;-58
2022/05/25 06:05:59;;;;;;;14.95;10.90;;;;;;;16.05;85.47;98211.81;1326740;108;27644;-58
2022/05/25 06:08:37;;;;;;;;;;;;;;;;;;;;;
2022/05/25 06:10:58;;;;;;;15.70;11.30;;;;;;;16.06;85.56;98225.02;1342366;106;25892;-59
2022/05/25 06:13:28;;;;;;;15.08;11.88;;;;;;;16.05;85.56;98235.30;1413542;101;25813;-58
2022/05/25 06:21:26;;;;;;;11.40;9.48;;;;;;;15.88;86.86;98241.99;1407730;101;25839;-58
2022/05/25 06:23:57;;;;;;;12.35;8.98;;;;;;;15.85;87.05;98237.19;1412629;101;25780;-58
2022/05/25 06:26:27;;;;;;;8.35;7.30;;;;;;;15.81;87.14;98233.55;1383065;102;32387;-59
2022/05/25 06:28:53;;;;;;;10.15;8.28;;;;;;;15.77;87.71;98225.73;1370213;103;25592;-59
2022/05/25 06:31:21;;;;;;;9.73;7.95;;;;;;;15.71;87.99;98218.31;1389026;103;28179;-59
2022/05/25 06:33:48;;;;;;;13.68;10.15;;;;;;;15.72;87.72;98219.13;1356222;105;25871;-59
2022/05/25 06:36:24;;;;;;;15.28;10.00;;;;;;;15.74;87.64;98222.31;1345493;106;25733;-59
2022/05/25 06:38:51;;;;;;;14.13;9.93;;;;;;;15.76;87.62;98227.72;1352609;106;25851;-59
2022/05/25 06:41:20;;;;;;;8.15;6.35;;;;;;;15.78;87.34;98230.12;1373537;102;25853;-60
2022/05/25 06:43:47;;;;;;;9.03;6.25;;;;;;;15.68;87.80;98220.41;1432291;99;28188;-59
2022/05/25 06:46:18;;;;;;;7.90;6.47;;;;;;;15.68;87.80;98220.41;1446233;99;25913;-61
2022/05/25 06:48:43;;;;;;;;;;;;;;;15.74;88.72;98233.36;1406730;100;25584;-60
2022/05/25 06:51:19;;;;;;;7.15;6.25;;;;;;;15.77;88.45;98235.41;1472778;95;26591;-61
2022/05/25 06:53:56;;;;;;;;;;;;;;;;;;;;;
2022/05/25 06:56:14;;;;;;;8.33;6.03;;;;;;;15.77;88.20;98238.98;1464055;98;26023;-61
2022/05/25 06:58:41;;;;;;;7.25;5.80;;;;;;;15.72;88.14;98232.94;1451099;98;25671;-61
2022/05/25 07:01:07;;;;;;;7.30;5.12;;;;;;;15.80;88.39;98242.98;1454613;96;25855;-61
2022/05/25 07:03:33;;;;;;;6.87;5.28;;;;;;;15.85;88.28;98247.42;1476282;96;25629;-60
2022/05/25 07:06:06;;;;;;;7.08;5.72;;;;;;;15.95;88.70;98248.27;1521379;93;25939;-60
2022/05/25 07:08:32;;;;;;;6.20;5.60;;;;;;;16.03;88.29;98250.05;1519246;93;27487;-60
2022/05/25 07:11:01;;;;;;;6.70;5.45;;;;;;;16.13;88.31;98249.27;1515584;94;25822;-59
2022/05/25 07:13:30;;;;;;;5.17;4.47;;;;;;;16.12;87.58;98253.20;1476071;97;25787;-59
2022/05/25 07:16:03;;;;;;;5.87;4.22;;;;;;;16.10;87.54;98248.61;1454585;96;26025;-59
2022/05/25 07:18:33;;;;;;;6.15;4.20;;;;;;;16.09;87.88;98246.41;1480474;96;25961;-60
2022/05/25 07:21:07;;;;;;;5.65;4.40;;;;;;;16.07;87.62;98245.18;1450973;97;27448;-60
2022/05/25 07:23:36;;;;;;;5.08;4.40;;;;;;;16.09;87.72;98245.63;1479317;97;25819;-60
2022/05/25 07:26:04;;;;;;;5.33;3.95;;;;;;;16.11;87.65;98241.91;1479687;97;25794;-60
2022/05/25 07:28:38;;;;;;;6.60;4.42;;;;;;;16.14;87.86;98248.91;1393419;103;25912;-60
2022/05/25 07:31:24;;;;;;;5.00;4.50;;;;;;;16.10;87.67;98252.19;1354593;105;25697;-57
2022/05/25 07:34:03;;;;;;;6.90;4.37;;;;;;;16.06;87.61;98255.42;1324544;107;29532;-60
2022/05/25 07:36:33;;;;;;;5.90;4.70;;;;;;;16.03;87.67;98256.95;1313302;109;25825;-57
2022/05/25 07:39:16;;;;;;;;;;;;;;;;;;;;;
2022/05/25 07:41:36;;;;;;;5.55;4.03;;;;;;;16.02;87.97;98266.99;1294392;110;25876;-58
2022/05/25 07:44:04;;;;;;;4.25;3.87;;;;;;;15.82;87.71;98268.29;1294659;110;25784;-58
2022/05/25 07:46:31;;;;;;;4.12;3.65;;;;;;;15.67;87.23;98266.59;1290892;110;27523;-58
2022/05/25 07:49:10;;;;;;;;;;;;;;;;;;;;;
2022/05/25 07:51:28;;;;;;;4.10;3.50;;;;;;;15.14;88.36;98273.14;1258911;113;25991;-58
2022/05/25 07:53:59;;;;;;;4.87;3.70;;;;;;;14.88;89.72;98273.65;1262739;112;25920;-58
2022/05/25 07:56:35;;;;;;;6.55;5.33;;;;;;;14.88;89.72;98273.65;1322708;108;25860;-59
2022/05/25 07:59:11;;;;;;;7.55;6.05;;;;;;;14.80;89.61;98273.43;1337387;106;26339;-58
2022/05/25 08:07:24;;;;;;;7.92;5.55;;;;;;;14.73;89.68;98279.30;1367934;104;32964;-58
2022/05/25 08:12:24;;;;;;;7.53;5.55;;;;;;;14.60;89.65;98283.50;1341774;106;25984;-58
2022/05/25 08:14:52;;;;;;;9.30;6.33;;;;;;;14.60;89.66;98289.02;1322472;108;25871;-57
2022/05/25 08:17:20;;;;;;;8.95;6.72;;;;;;;14.59;89.50;98294.88;1308095;108;25737;-60
2022/05/25 08:19:48;;;;;;;10.53;6.45;;;;;;;14.59;89.50;98294.88;1304662;110;26757;-61
2022/05/25 08:22:18;;;;;;;10.98;6.25;;;;;;;14.62;89.30;98307.38;1288828;111;25861;-59
2022/05/25 08:24:44;;;;;;;8.27;5.77;;;;;;;14.55;88.49;98303.84;1277923;112;28514;-59
2022/05/25 08:27:14;;;;;;;10.53;5.05;;;;;;;14.43;87.95;98308.80;1292782;110;25972;-60
2022/05/25 08:29:41;;;;;;;7.03;4.12;;;;;;;14.40;88.19;98319.14;1296097;107;25882;-60
2022/05/25 08:34:38;;;;;;;8.18;4.72;;;;;;;14.25;87.41;98322.05;1299710;109;26038;-60
2022/05/25 08:37:04;;;;;;;6.37;3.98;;;;;;;14.08;85.91;98327.81;1329698;107;27495;-60
2022/05/25 08:39:32;;;;;;;7.85;4.40;;;;;;;13.89;86.63;98307.97;1329797;107;25884;-60
2022/05/25 08:42:05;;;;;;;7.92;4.97;;;;;;;13.75;86.79;98327.59;1324542;107;25679;-59
2022/05/25 08:44:33;;;;;;;6.75;3.85;;;;;;;13.68;87.12;98334.24;1338578;107;25697;-60
2022/05/25 08:47:04;;;;;;;7.10;4.12;;;;;;;13.48;87.18;98342.22;1320100;108;25659;-60
2022/05/25 08:49:36;;;;;;;4.70;3.00;;;;;;;13.38;88.06;98342.62;1337320;107;27566;-61
2022/05/25 08:52:07;;;;;;;5.22;3.98;;;;;;;13.30;87.71;98347.89;1331970;106;25860;-61
2022/05/25 08:54:36;;;;;;;5.08;3.40;;;;;;;13.23;88.29;98357.28;1332303;107;25659;-61
2022/05/25 08:57:08;;;;;;;6.10;3.60;;;;;;;13.31;88.05;98372.09;1280277;112;25621;-61
2022/05/25 08:59:42;;;;;;;5.90;3.65;;;;;;;13.33;88.33;98386.89;1280307;110;25651;-61
2022/05/25 09:02:16;;;;;;;5.75;3.20;;;;;;;13.26;87.81;98381.37;1309426;109;27564;-59
2022/05/25 09:07:26;;;;;;;4.00;3.27;;;;;;;13.26;88.07;98397.88;1296551;110;25951;-60
2022/05/25 09:09:53;;;;;;;4.30;2.87;;;;;;;13.23;87.92;98413.69;1297444;110;26504;-60
2022/05/25 09:12:33;;;;;;;4.75;3.45;;;;;;;13.23;88.10;98416.44;1296894;110;25656;-60
2022/05/25 09:15:31;;;;;;;;;;;;;;;;;;;;;
2022/05/25 09:18:13;;;;;;;;;;;;;;;;;;;;;
2022/05/25 09:20:36;;;;;;;2.95;2.35;;;;;;;13.19;87.89;98419.64;1236487;113;25761;-61
2022/05/25 09:23:04;;;;;;;5.58;2.95;;;;;;;13.12;87.64;98401.47;1225144;116;25967;-60
2022/05/25 09:25:43;;;;;;;;;;;;;;;;;;;;;
2022/05/25 09:30:51;;;;;;;5.05;2.95;;;;;;;13.24;87.59;98389.14;1246757;113;44169;-60
2022/05/25 09:33:40;;;;;;;5.53;2.58;;;;;;;13.35;86.48;98375.77;1257892;113;25832;-60
2022/05/25 09:36:33;;;;;;;3.67;2.50;;;;;;;13.43;87.41;98380.95;1283953;111;25835;-59
2022/05/25 09:39:28;;;;;;;;;;;;;;;;;;;;;
2022/05/25 09:41:57;;;;;;;;;;;;;;;;;;;;;
2022/05/25 09:44:19;;;;;;;4.03;2.67;;;;;;;13.57;87.35;98411.53;1296616;109;25872;-59
2022/05/25 09:47:02;;;;;;;5.20;2.45;;;;;;;13.60;86.23;98409.47;1277389;110;25728;-60
2022/05/25 09:49:47;;;;;;;3.20;2.40;;;;;;;13.67;86.70;98416.59;1301765;110;26037;-60
2022/05/25 09:52:37;;;;;;;7.00;2.90;;;;;;;13.67;86.45;98425.67;1285818;111;25880;-59
2022/05/25 09:55:28;;;;;;;5.90;3.20;;;;;;;13.76;86.87;98431.67;1311512;108;27555;-59
2022/05/25 09:58:36;;;;;;;4.30;2.87;;;;;;;13.87;87.13;98427.31;1320828;108;26097;-59
2022/05/25 10:01:30;;;;;;;4.10;2.75;;;;;;;13.87;86.60;98435.58;1355458;105;25876;-61
2022/05/25 10:03:59;;;;;;;3.45;2.25;;;;;;;13.73;85.61;98434.52;1352508;106;25709;-60
2022/05/25 10:06:35;;;;;;;3.02;2.30;;;;;;;13.72;85.26;98431.53;1389752;103;25883;-60
2022/05/25 10:09:25;;;;;;;4.97;2.72;;;;;;;13.64;85.64;98430.48;1374326;104;26921;-60
2022/05/25 10:12:01;;;;;;;3.98;1.65;;;;;;;13.58;85.69;98434.59;1371662;104;25884;-60
2022/05/25 10:14:43;;;;;;;3.62;2.70;;;;;;;13.61;85.10;98436.67;1340544;105;25638;-59
2022/05/25 10:17:14;;;;;;;5.33;2.75;;;;;;;13.60;86.07;98426.80;1355399;104;25970;-59
2022/05/25 10:19:51;;;;;;;4.62;3.37;;;;;;;13.58;85.82;98426.92;1352873;104;25665;-58
2022/05/25 10:22:44;;;;;;;3.85;2.58;;;;;;;13.53;86.34;98432.85;1365795;104;28295;-59
2022/05/25 10:25:49;;;;;;;4.62;3.17;;;;;;;13.56;86.45;98445.16;1367636;104;25620;-59
2022/05/25 10:28:36;;;;;;;3.35;2.15;;;;;;;13.59;85.91;98449.17;1354092;105;25723;-59
2022/05/25 10:37:20;;;;;;;;;;;;;;;;;;;;;
2022/05/25 10:39:55;;;;;;;11.90;7.55;;;;;;;13.63;85.98;98457.80;1259603;111;25810;-59
2022/05/25 10:42:39;;;;;;;8.70;7.40;;;;;;;13.69;86.46;98451.49;1268569;112;25912;-61
2022/05/25 10:45:18;;;;;;;6.92;5.80;;;;;;;13.83;86.03;98456.70;1277368;111;25836;-61
2022/05/25 10:47:55;;;;;;;7.12;5.50;;;;;;;13.83;86.03;98456.70;1265346;111;25973;-59
2022/05/25 10:50:48;;;;;;;8.33;3.25;;;;;;;13.91;86.11;98461.87;1265391;113;27577;-60
2022/05/25 10:53:41;;;;;;;3.08;2.77;;;;;;;13.90;85.54;98469.89;1262489;113;25918;-59
2022/05/25 10:56:33;;;;;;;;;;;;;;;;;;;;;
2022/05/25 10:59:15;;;;;;;5.00;4.03;;;;;;;13.67;85.33;98484.06;1264556;113;25894;-60
2022/05/25 11:01:58;;;;;;;3.50;3.10;;;;;;;13.59;85.78;98489.09;1298320;110;25782;-61
2022/05/25 11:04:50;;;;;;;4.97;3.08;;;;;;;13.58;86.36;98484.73;1302038;110;28847;-60
2022/05/25 11:07:41;;;;;;;2.72;2.50;;;;;;;13.53;86.34;98482.41;1281304;111;25683;-60
2022/05/25 11:10:37;;;;;;;4.95;2.80;;;;;;;13.51;86.11;98486.65;1283824;110;25869;-60
2022/05/25 11:13:14;;;;;;;4.45;2.42;;;;;;;13.49;86.15;98491.09;1298536;110;25905;-60
2022/05/25 11:15:57;;;;;;;10.53;5.85;;;;;;;13.49;86.16;98496.59;1329770;104;25816;-60
2022/05/25 11:19:00;;;;;;;8.08;5.80;;;;;;;13.53;86.12;98493.42;1424183;100;29551;-62
2022/05/25 11:22:10;;;;;;;11.12;8.80;;;;;;;13.52;86.26;98493.19;1392841;103;25670;-62
2022/05/25 11:24:50;;;;;;;8.40;7.10;;;;;;;13.61;86.63;98490.91;1393297;102;25802;-62
2022/05/25 11:27:43;;;;;;;9.78;8.18;;;;;;;13.64;86.41;98496.56;1392814;102;25824;-62
2022/05/25 11:30:37;;;;;;;6.80;5.60;;;;;;;13.72;86.31;98499.56;1388293;103;25592;-62
2022/05/25 11:33:39;;;;;;;6.60;5.22;;;;;;;13.69;85.83;98503.81;1390300;103;27499;-61
2022/05/25 11:36:19;;;;;;;5.92;4.30;;;;;;;13.68;86.04;98502.20;1390527;103;25790;-61
2022/05/25 11:39:15;;;;;;;6.28;3.20;;;;;;;13.62;86.02;98504.94;1343794;106;25650;-61
2022/05/25 11:41:53;;;;;;;7.05;5.20;;;;;;;13.57;85.00;98507.33;1343739;106;25986;-61
2022/05/25 11:45:01;;;;;;;;;;;;;;;;;;;;;
2022/05/25 11:47:46;;;;;;;4.08;3.02;;;;;;;13.38;86.06;98521.52;1328013;107;25947;-61
2022/05/25 11:50:27;;;;;;;1.90;1.30;;;;;;;13.41;86.73;98511.22;1327549;108;25629;-60
2022/05/25 11:53:27;;;;;;;1.42;1.17;;;;;;;13.28;83.72;98518.62;1311729;108;25642;-61
2022/05/25 11:56:23;;;;;;;1.82;1.35;;;;;;;13.10;84.01;98524.23;1305635;109;26707;-60
2022/05/25 12:02:21;;;;;;;3.33;2.45;;;;;;;12.96;84.71;98527.26;1336115;106;28710;-60
2022/05/25 12:05:16;;;;;;;1.72;1.60;;;;;;;12.90;85.19;98529.96;1326342;107;25694;-58
2022/05/25 12:08:28;;;;;;;;;;;;;;;;;;;;;
2022/05/25 12:10:51;;;;;;;1.45;1.20;;;;;;;12.92;85.37;98521.61;1377721;104;25853;-59
2022/05/25 12:13:33;;;;;;;3.10;2.05;;;;;;;12.92;84.66;98531.80;1358933;105;25811;-59
2022/05/25 12:16:10;;;;;;;2.40;2.10;;;;;;;12.89;84.75;98529.70;1356345;105;27675;-59
2022/05/25 12:19:13;;;;;;;3.70;1.62;;;;;;;12.87;85.04;98530.63;1363488;103;25614;-58
2022/05/25 12:21:54;;;;;;;3.20;1.60;;;;;;;12.92;85.17;98530.42;1393508;102;25742;-58
2022/05/25 12:24:37;;;;;;;5.20;2.10;;;;;;;12.85;84.53;98528.77;1406904;102;25861;-59
2022/05/25 12:27:10;;;;;;;2.62;1.60;;;;;;;12.84;85.15;98545.04;1392603;103;25652;-58
2022/05/25 12:29:45;;;;;;;1.77;1.30;;;;;;;12.79;84.86;98549.59;1386808;102;27830;-59
2022/05/25 12:32:15;;;;;;;1.70;1.60;;;;;;;12.84;85.04;98555.45;1393080;103;25880;-58
2022/05/25 12:34:51;;;;;;;2.80;1.50;;;;;;;12.99;85.65;98561.53;1439320;99;25842;-58
2022/05/25 12:37:41;;;;;;;2.40;1.60;;;;;;;13.15;85.81;98566.69;1439209;99;25725;-58
2022/05/25 12:40:14;;;;;;;2.70;1.60;;;;;;;13.22;84.99;98566.17;1396844;102;25792;-58
2022/05/25 12:42:47;;;;;;;2.75;1.67;;;;;;;13.28;85.52;98559.34;1398443;102;28416;-58
2022/05/25 12:48:31;;;;;;;2.20;1.80;;;;;;;13.42;85.55;98556.89;1340450;104;25783;-59
2022/05/25 12:51:09;;;;;;;2.05;1.50;;;;;;;13.53;84.46;98566.97;1278071;110;25672;-58
2022/05/25 12:56:34;;;;;;;3.77;2.52;;;;;;;13.75;85.30;98569.92;1301170;109;26023;-58
2022/05/25 12:59:11;;;;;;;4.35;2.10;;;;;;;13.83;84.87;98564.11;1314405;109;25791;-59
2022/05/25 13:01:42;;;;;;;3.25;1.90;;;;;;;13.83;84.13;98561.92;1314440;109;25836;-58
2022/05/25 13:04:18;;;;;;;4.78;2.45;;;;;;;13.84;83.89;98573.19;1349406;106;25847;-58
2022/05/25 13:06:50;;;;;;;5.45;2.67;;;;;;;13.86;84.24;98574.45;1342364;106;25719;-58
2022/05/25 13:12:52;;;;;;;7.42;4.05;;;;;;;14.05;84.67;98565.67;1364121;104;25795;-59
2022/05/25 13:15:33;;;;;;;;;;;;;;;;;;;;;
2022/05/25 13:17:55;;;;;;;6.47;5.83;;;;;;;14.30;81.92;98573.20;1366693;105;25877;-59
2022/05/25 13:20:46;;;;;;;4.53;2.50;;;;;;;14.18;81.39;98573.42;1388851;103;25578;-58
2022/05/25 13:23:06;;;;;;;5.17;3.00;;;;;;;14.10;81.77;98571.55;1405701;100;26222;-58
2022/05/25 13:25:53;;;;;;;6.12;2.83;;;;;;;14.18;82.95;98578.11;1384889;103;25678;-59
2022/05/25 13:28:57;;;;;;;4.00;2.58;;;;;;;14.16;82.42;98563.86;1385234;103;26001;-58
2022/05/25 13:31:38;;;;;;;4.00;2.50;;;;;;;14.26;82.07;98573.66;1375661;104;25863;-58
2022/05/25 13:34:19;;;;;;;;;;;;;;;14.15;80.84;98571.34;1382738;101;25600;-58
2022/05/25 13:37:11;;;;;;;;;;;;;;;;;;;;;
2022/05/25 13:39:28;;;;;;;;;;;;;;;14.04;80.62;98566.83;1368212;105;25997;-58
2022/05/25 13:42:06;;;;;;;6.62;2.62;;;;;;;14.18;81.00;98565.16;1402541;102;25562;-60
2022/05/25 13:44:53;;;;;;;4.22;1.95;;;;;;;14.27;80.75;98558.16;1381926;103;26249;-60
2022/05/25 13:47:27;;;;;;;2.87;1.70;;;;;;;14.43;79.70;98564.40;1402433;102;25662;-58
2022/05/25 13:49:58;;;;;;;2.70;1.80;;;;;;;14.50;79.69;98554.17;1381420;102;27635;-58
2022/05/25 13:52:33;;;;;;;5.10;2.90;;;;;;;14.50;79.69;98554.17;1367606;103;25683;-58